Wilder, Kentucky
Current Conditions -  °F | °C
As of 1:53 PM on Friday 21 Nov 2014 (Local Time) from KLUK Reporting Station
Clear Clear  
Wind Chill: 33°   Ceiling: Unl
Heat Index: 33°   Visibility: 10mi
Dew Point: 11°   Wind: 0mph
Humidity: 40%   Direction: NA
Pressure: 30.51"   Gusts: NA
Location:  39.0173°N, 84.4405°W
Report Text: KLUK 211853Z 00000KT 10SM CLR 01/M12 A3051 RMK AO2 SLP337 T00061117
Loading
Personal Weather Stations






























Interactive Weather Map New forecast layout! Learn more

10-Day Weather Forecast

Advertisements
Track Severe Weather on mobile